createdAt,value
2023-05-15T00:00:08.019Z,93.61
2023-05-15T00:01:08.018Z,93.76
2023-05-15T00:02:08.987Z,93.76
2023-05-15T00:03:08.057Z,93.86
2023-05-15T00:04:07.966Z,93.86
2023-05-15T00:05:07.949Z,93.96
2023-05-15T00:06:07.947Z,94.06
2023-05-15T00:07:09.149Z,94.17
2023-05-15T00:08:07.947Z,94.17
2023-05-15T00:09:07.955Z,94.17
2023-05-15T00:10:07.889Z,94.17
2023-05-15T00:11:07.863Z,94.26
2023-05-15T00:12:07.860Z,94.26
2023-05-15T00:13:07.837Z,94.37
2023-05-15T00:14:07.838Z,94.46
2023-05-15T00:15:07.876Z,94.51
2023-05-15T00:16:07.881Z,94.51
2023-05-15T00:17:07.813Z,94.71
2023-05-15T00:18:07.839Z,94.92
2023-05-15T00:19:07.793Z,95.02
2023-05-15T00:20:07.760Z,94.92
2023-05-15T00:21:07.804Z,94.92
2023-05-15T00:22:07.770Z,94.92
2023-05-15T00:23:07.980Z,94.92
2023-05-15T00:24:07.730Z,95.02
2023-05-15T00:25:07.726Z,95.02
2023-05-15T00:26:09.178Z,95.02
2023-05-15T00:27:07.708Z,95.02
2023-05-15T00:28:07.714Z,95.02
2023-05-15T00:29:07.700Z,95.02
2023-05-15T00:30:07.677Z,95.02
2023-05-15T00:31:09.122Z,95.02
2023-05-15T00:32:07.648Z,95.02
2023-05-15T00:33:07.624Z,95.02
2023-05-15T00:34:08.683Z,95.12
2023-05-15T00:35:07.624Z,95.17
2023-05-15T00:36:07.610Z,95.17
2023-05-15T00:37:09.033Z,95.17
2023-05-15T00:38:07.559Z,95.17
2023-05-15T00:39:07.549Z,95.26
2023-05-15T00:40:07.577Z,95.26
2023-05-15T00:41:07.549Z,95.37
2023-05-15T00:42:07.523Z,95.37
2023-05-15T00:43:07.532Z,95.37
2023-05-15T00:44:07.520Z,95.37
2023-05-15T00:45:07.521Z,95.26
2023-05-15T00:46:07.497Z,95.26
2023-05-15T00:47:07.553Z,95.26
2023-05-15T00:48:07.474Z,95.26
2023-05-15T00:49:07.444Z,95.26
2023-05-15T00:50:07.438Z,95.41
2023-05-15T00:51:07.413Z,95.41
2023-05-15T00:52:07.413Z,95.62
2023-05-15T00:53:07.431Z,95.62
2023-05-15T00:54:07.456Z,95.72
2023-05-15T00:55:07.428Z,95.62
2023-05-15T00:56:07.362Z,95.62
2023-05-15T00:57:07.358Z,95.72
2023-05-15T00:58:07.370Z,95.62
2023-05-15T00:59:07.569Z,95.51
2023-05-15T01:00:07.332Z,95.51
2023-05-15T01:01:08.514Z,95.62
2023-05-15T01:02:08.902Z,95.51
2023-05-15T01:03:07.459Z,95.51
2023-05-15T01:04:07.288Z,95.51
2023-05-15T01:05:07.292Z,95.51
2023-05-15T01:06:07.317Z,95.51
2023-05-15T01:07:08.220Z,95.51
2023-05-15T01:08:07.330Z,95.56
2023-05-15T01:09:07.240Z,95.56
2023-05-15T01:10:08.398Z,95.46
2023-05-15T01:11:07.289Z,95.46
2023-05-15T01:12:07.193Z,95.46
2023-05-15T01:13:07.206Z,95.46
2023-05-15T01:14:08.002Z,95.36
2023-05-15T01:15:07.188Z,95.36
2023-05-15T01:16:07.152Z,95.46
2023-05-15T01:17:07.162Z,95.46
2023-05-15T01:18:07.335Z,95.56
2023-05-15T01:19:08.655Z,95.46
2023-05-15T01:20:07.163Z,95.46
2023-05-15T01:21:08.065Z,95.46
2023-05-15T01:22:08.551Z,95.46
2023-05-15T01:23:07.079Z,95.46
2023-05-15T01:24:07.081Z,95.46
2023-05-15T01:25:07.080Z,95.46
2023-05-15T01:26:07.041Z,95.36
2023-05-15T01:27:07.038Z,95.36
2023-05-15T01:28:07.013Z,95.46
2023-05-15T01:29:08.475Z,95.46
2023-05-15T01:30:08.960Z,95.56
2023-05-15T01:31:07.009Z,95.56
2023-05-15T01:32:07.066Z,95.56
2023-05-15T01:33:07.001Z,95.56
2023-05-15T01:34:07.471Z,95.56
2023-05-15T01:35:06.950Z,95.56
2023-05-15T01:36:07.398Z,95.50
2023-05-15T01:37:08.388Z,95.50
2023-05-15T01:38:06.930Z,95.40
2023-05-15T01:39:07.100Z,95.40
2023-05-15T01:40:07.479Z,95.40
2023-05-15T01:41:07.437Z,95.50
2023-05-15T01:42:07.215Z,95.50
2023-05-15T01:43:07.789Z,95.54
2023-05-15T01:44:06.860Z,95.65
2023-05-15T01:45:08.799Z,95.75
2023-05-15T01:46:07.001Z,95.85
2023-05-15T01:47:06.838Z,95.95
2023-05-15T01:48:06.952Z,96.06
2023-05-15T01:49:06.979Z,96.15
2023-05-15T01:50:07.596Z,96.20
2023-05-15T01:51:08.265Z,96.30
2023-05-15T01:52:06.775Z,96.41
2023-05-15T01:53:08.179Z,96.51
2023-05-15T01:54:07.011Z,96.51
2023-05-15T01:55:06.785Z,96.61
2023-05-15T01:56:06.738Z,96.61
2023-05-15T01:57:08.135Z,96.61
2023-05-15T01:58:06.682Z,96.71
2023-05-15T01:59:06.657Z,96.81
2023-05-15T02:00:06.887Z,96.81
2023-05-15T02:01:06.657Z,96.81
2023-05-15T02:02:08.220Z,96.81
2023-05-15T02:03:06.866Z,96.81
2023-05-15T02:04:07.562Z,96.81
2023-05-15T02:05:06.669Z,96.71
2023-05-15T02:06:07.547Z,96.61
2023-05-15T02:07:06.565Z,96.61
2023-05-15T02:08:06.571Z,96.51
2023-05-15T02:09:06.558Z,96.41
2023-05-15T02:10:06.607Z,96.30
2023-05-15T02:11:06.520Z,96.20
2023-05-15T02:12:06.530Z,96.10
2023-05-15T02:13:06.507Z,96.10
2023-05-15T02:14:07.933Z,96.00
2023-05-15T02:15:06.548Z,95.90
2023-05-15T02:16:06.588Z,95.85
2023-05-15T02:17:06.474Z,95.90
2023-05-15T02:18:06.443Z,95.79
2023-05-15T02:19:06.516Z,95.79
2023-05-15T02:20:06.555Z,95.79
2023-05-15T02:21:06.435Z,95.79
2023-05-15T02:22:07.894Z,95.75
2023-05-15T02:23:06.396Z,95.75
2023-05-15T02:24:06.377Z,95.65
2023-05-15T02:25:06.436Z,95.65
2023-05-15T02:26:06.343Z,95.65
2023-05-15T02:27:07.819Z,95.65
2023-05-15T02:28:06.348Z,95.54
2023-05-15T02:29:06.329Z,95.45
2023-05-15T02:30:06.355Z,95.45
2023-05-15T02:31:07.127Z,95.45
2023-05-15T02:32:07.838Z,95.45
2023-05-15T02:33:06.385Z,95.45
2023-05-15T02:34:06.263Z,95.45
2023-05-15T02:35:06.506Z,95.45
2023-05-15T02:36:06.280Z,95.45
2023-05-15T02:37:06.554Z,95.45
2023-05-15T02:38:06.509Z,95.45
2023-05-15T02:39:06.384Z,95.39
2023-05-15T02:40:06.653Z,95.34
2023-05-15T02:41:06.197Z,95.34
2023-05-15T02:42:07.135Z,95.24
2023-05-15T02:43:06.163Z,95.24
2023-05-15T02:44:06.959Z,95.04
2023-05-15T02:45:07.601Z,94.93
2023-05-15T02:46:07.685Z,94.84
2023-05-15T02:47:06.130Z,94.84
2023-05-15T02:48:06.259Z,94.73
2023-05-15T02:49:06.093Z,94.73
2023-05-15T02:50:06.086Z,94.73
2023-05-15T02:51:06.300Z,94.63
2023-05-15T02:52:06.079Z,94.43
2023-05-15T02:53:06.070Z,94.47
2023-05-15T02:54:06.028Z,94.37
2023-05-15T02:55:07.475Z,94.37
2023-05-15T02:56:05.997Z,94.27
2023-05-15T02:57:05.998Z,94.37
2023-05-15T02:58:06.001Z,94.27
2023-05-15T02:59:06.037Z,94.17
2023-05-15T03:00:06.929Z,94.17
2023-05-15T03:01:05.986Z,94.17
2023-05-15T03:02:05.954Z,94.17
2023-05-15T03:03:06.716Z,94.17
2023-05-15T03:04:05.937Z,94.17
2023-05-15T03:05:06.870Z,94.17
2023-05-15T03:06:05.996Z,94.17
2023-05-15T03:07:06.704Z,94.17
2023-05-15T03:08:05.893Z,94.17
2023-05-15T03:09:05.868Z,94.17
2023-05-15T03:10:07.321Z,94.17
2023-05-15T03:11:05.897Z,94.17
2023-05-15T03:12:05.910Z,94.07
2023-05-15T03:13:05.884Z,94.07
2023-05-15T03:14:05.802Z,94.17
2023-05-15T03:15:05.821Z,94.17
2023-05-15T03:16:07.235Z,94.11
2023-05-15T03:17:05.806Z,94.21
2023-05-15T03:18:05.834Z,94.31
2023-05-15T03:19:05.806Z,94.42
2023-05-15T03:20:05.749Z,94.42
2023-05-15T03:21:05.732Z,94.42
2023-05-15T03:22:05.791Z,94.42
2023-05-15T03:23:05.699Z,94.42
2023-05-15T03:24:05.688Z,94.52
2023-05-15T03:25:05.687Z,94.62
2023-05-15T03:26:05.700Z,94.62
2023-05-15T03:27:05.693Z,94.52
2023-05-15T03:28:05.720Z,94.52
2023-05-15T03:29:05.771Z,94.56
2023-05-15T03:30:05.621Z,94.66
2023-05-15T03:31:05.736Z,94.66
2023-05-15T03:32:06.464Z,94.76
2023-05-15T03:33:05.643Z,94.76
2023-05-15T03:34:07.039Z,94.87
2023-05-15T03:35:05.557Z,94.87
2023-05-15T03:36:05.559Z,94.87
2023-05-15T03:37:05.608Z,94.97
2023-05-15T03:38:05.536Z,95.12
2023-05-15T03:39:05.534Z,95.12
2023-05-15T03:40:05.516Z,95.21
2023-05-15T03:41:05.503Z,95.32
2023-05-15T03:42:05.488Z,95.42
2023-05-15T03:43:05.538Z,95.42
2023-05-15T03:44:06.961Z,95.52
2023-05-15T03:45:05.472Z,95.52
2023-05-15T03:46:06.344Z,95.62
2023-05-15T03:47:05.563Z,95.62
2023-05-15T03:48:05.455Z,95.73
2023-05-15T03:49:05.448Z,95.83
2023-05-15T03:50:05.407Z,95.83
2023-05-15T03:51:05.391Z,95.83
2023-05-15T03:52:05.370Z,95.83
2023-05-15T03:53:05.815Z,95.83
2023-05-15T03:54:05.357Z,95.83
2023-05-15T03:55:05.555Z,95.83
2023-05-15T03:56:05.331Z,95.93
2023-05-15T03:57:05.385Z,95.93
2023-05-15T03:58:05.356Z,95.93
2023-05-15T03:59:05.326Z,95.89
2023-05-15T04:00:06.263Z,95.78
2023-05-15T04:01:05.355Z,95.78
2023-05-15T04:02:05.770Z,95.62
2023-05-15T04:03:05.326Z,95.52
2023-05-15T04:04:06.693Z,95.52
2023-05-15T04:05:05.407Z,95.52
2023-05-15T04:06:06.679Z,95.52
2023-05-15T04:07:06.670Z,95.52
2023-05-15T04:08:05.211Z,95.52
2023-05-15T04:09:05.220Z,95.62
2023-05-15T04:10:05.181Z,95.62
2023-05-15T04:11:05.150Z,95.62
2023-05-15T04:12:05.154Z,95.62
2023-05-15T04:13:05.167Z,95.52
2023-05-15T04:14:05.140Z,95.62
2023-05-15T04:15:06.389Z,95.62
2023-05-15T04:16:05.128Z,95.62
2023-05-15T04:17:05.113Z,95.73
2023-05-15T04:18:05.238Z,95.73
2023-05-15T04:19:05.152Z,95.73
2023-05-15T04:20:05.059Z,95.73
2023-05-15T04:21:05.063Z,95.73
2023-05-15T04:22:05.042Z,95.62
2023-05-15T04:23:05.491Z,95.62
2023-05-15T04:24:05.017Z,95.62
2023-05-15T04:25:05.033Z,95.62
2023-05-15T04:26:05.020Z,95.62
2023-05-15T04:27:05.078Z,95.52
2023-05-15T04:28:05.014Z,95.52
2023-05-15T04:29:05.099Z,95.52
2023-05-15T04:30:04.976Z,95.52
2023-05-15T04:31:04.943Z,95.42
2023-05-15T04:32:04.965Z,95.32
2023-05-15T04:33:04.971Z,95.32
2023-05-15T04:34:06.427Z,95.42
2023-05-15T04:35:05.449Z,95.42
2023-05-15T04:36:04.881Z,95.42
2023-05-15T04:37:04.874Z,95.42
2023-05-15T04:38:04.864Z,95.42
2023-05-15T04:39:04.885Z,95.52
2023-05-15T04:40:04.860Z,95.52
2023-05-15T04:41:04.838Z,95.52
2023-05-15T04:42:04.841Z,95.48
2023-05-15T04:43:04.822Z,95.37
2023-05-15T04:44:04.825Z,95.48
2023-05-15T04:45:04.803Z,95.48
2023-05-15T04:46:04.836Z,95.48
2023-05-15T04:47:04.766Z,95.37
2023-05-15T04:48:04.791Z,95.28
2023-05-15T04:49:04.749Z,95.17
2023-05-15T04:50:04.733Z,95.07
2023-05-15T04:51:06.233Z,94.97
2023-05-15T04:52:04.740Z,94.97
2023-05-15T04:53:04.705Z,94.87
2023-05-15T04:54:04.702Z,94.87
2023-05-15T04:55:04.719Z,94.76
2023-05-15T04:56:06.696Z,94.76
2023-05-15T04:57:04.655Z,94.66
2023-05-15T04:58:04.631Z,94.76
2023-05-15T04:59:04.622Z,94.76
2023-05-15T05:00:04.615Z,94.76
2023-05-15T05:01:04.781Z,94.76
2023-05-15T05:02:04.670Z,94.76
2023-05-15T05:03:05.581Z,94.76
2023-05-15T05:04:04.607Z,94.76
2023-05-15T05:05:04.826Z,94.76
2023-05-15T05:06:04.585Z,94.66
2023-05-15T05:07:04.559Z,94.66
2023-05-15T05:08:05.435Z,94.56
2023-05-15T05:09:06.534Z,94.56
2023-05-15T05:10:05.980Z,94.66
2023-05-15T05:11:04.498Z,94.66
2023-05-15T05:12:04.494Z,94.71
2023-05-15T05:13:04.468Z,94.71
2023-05-15T05:14:04.458Z,94.60
2023-05-15T05:15:04.545Z,94.50
2023-05-15T05:16:04.514Z,94.40
2023-05-15T05:17:05.394Z,94.40
2023-05-15T05:18:05.893Z,94.30
2023-05-15T05:19:04.826Z,94.40
2023-05-15T05:20:04.494Z,94.40
2023-05-15T05:21:04.403Z,94.30
2023-05-15T05:22:06.021Z,94.20
2023-05-15T05:23:04.362Z,94.20
2023-05-15T05:24:04.504Z,94.20
2023-05-15T05:25:04.479Z,94.20
2023-05-15T05:26:06.137Z,94.30
2023-05-15T05:27:05.319Z,94.20
2023-05-15T05:28:04.369Z,94.05
2023-05-15T05:29:04.299Z,93.89
2023-05-15T05:30:04.313Z,93.69
2023-05-15T05:31:04.308Z,93.48
2023-05-15T05:32:05.381Z,93.48
2023-05-15T05:33:04.320Z,93.38
2023-05-15T05:34:06.208Z,93.28
2023-05-15T05:35:05.686Z,93.28
2023-05-15T05:36:05.675Z,93.18
2023-05-15T05:37:05.029Z,93.07
2023-05-15T05:38:04.248Z,92.87
2023-05-15T05:39:04.348Z,92.67
2023-05-15T05:40:05.648Z,92.46
2023-05-15T05:41:04.170Z,92.57
2023-05-15T05:42:04.242Z,92.57
2023-05-15T05:43:05.166Z,92.57
2023-05-15T05:44:05.101Z,92.77
2023-05-15T05:45:05.120Z,92.77
2023-05-15T05:46:04.228Z,92.57
2023-05-15T05:47:05.097Z,92.46
2023-05-15T05:48:05.136Z,92.36
2023-05-15T05:49:04.525Z,92.36
2023-05-15T05:50:04.074Z,92.36
2023-05-15T05:51:05.021Z,92.36
2023-05-15T05:52:04.057Z,92.36
2023-05-15T05:53:05.527Z,92.36
2023-05-15T05:54:04.041Z,92.46
2023-05-15T05:55:04.101Z,92.46
2023-05-15T05:56:04.999Z,92.57
2023-05-15T05:57:05.438Z,92.52
2023-05-15T05:58:08.551Z,92.52
2023-05-15T05:59:04.972Z,92.42
2023-05-15T06:00:04.255Z,92.42
2023-05-15T06:01:03.938Z,92.42
2023-05-15T06:02:05.453Z,92.42
2023-05-15T06:03:04.942Z,92.42
2023-05-15T06:04:04.140Z,92.42
2023-05-15T06:05:04.202Z,92.42
2023-05-15T06:06:03.927Z,92.11
2023-05-15T06:07:03.876Z,91.81
2023-05-15T06:08:03.871Z,91.61
2023-05-15T06:09:03.953Z,91.50
2023-05-15T06:10:04.147Z,91.40
2023-05-15T06:11:03.813Z,91.40
2023-05-15T06:12:03.841Z,91.40
2023-05-15T06:13:06.830Z,91.40
2023-05-15T06:14:04.636Z,91.40
2023-05-15T06:15:03.877Z,91.40
2023-05-15T06:16:03.790Z,91.40
2023-05-15T06:17:03.777Z,91.40
2023-05-15T06:18:04.115Z,91.30
2023-05-15T06:19:04.785Z,91.20
2023-05-15T06:20:03.746Z,91.05
2023-05-15T06:21:05.174Z,91.05
2023-05-15T06:22:03.706Z,91.05
2023-05-15T06:23:05.165Z,90.95
2023-05-15T06:24:04.554Z,90.75
2023-05-15T06:25:04.628Z,90.55
2023-05-15T06:26:05.122Z,90.34
2023-05-15T06:27:04.636Z,90.24
2023-05-15T06:28:04.613Z,90.24
2023-05-15T06:29:05.101Z,90.30
2023-05-15T06:30:03.650Z,89.89
2023-05-15T06:31:03.722Z,89.59
2023-05-15T06:32:04.577Z,89.48
2023-05-15T06:33:03.755Z,89.34
2023-05-15T06:34:03.575Z,89.24
2023-05-15T06:35:03.618Z,88.53
2023-05-15T06:36:03.555Z,88.02
2023-05-15T06:37:04.404Z,87.65
2023-05-15T06:38:03.539Z,87.65
2023-05-15T06:39:03.504Z,87.96
2023-05-15T06:40:03.560Z,88.06
2023-05-15T06:41:03.545Z,88.16
2023-05-15T06:42:03.492Z,88.16
2023-05-15T06:43:03.582Z,88.16
2023-05-15T06:44:03.534Z,87.85
2023-05-15T06:45:03.590Z,87.65
2023-05-15T06:46:03.696Z,87.65
2023-05-15T06:47:04.370Z,87.55
2023-05-15T06:48:03.422Z,87.65
2023-05-15T06:49:03.580Z,87.65
2023-05-15T06:50:03.575Z,87.45
2023-05-15T06:51:04.348Z,87.24
2023-05-15T06:52:04.378Z,87.14
2023-05-15T06:53:03.354Z,87.35
2023-05-15T06:54:03.398Z,87.35
2023-05-15T06:55:03.610Z,87.45
2023-05-15T06:56:03.335Z,87.35
2023-05-15T06:57:04.269Z,87.45
2023-05-15T06:58:04.282Z,87.14
2023-05-15T06:59:03.306Z,87.14
2023-05-15T07:00:03.319Z,87.35
2023-05-15T07:01:04.095Z,87.45
2023-05-15T07:02:04.240Z,87.55
2023-05-15T07:03:03.297Z,87.65
2023-05-15T07:04:03.442Z,87.61
2023-05-15T07:05:03.331Z,87.10
2023-05-15T07:06:04.162Z,86.49
2023-05-15T07:07:04.164Z,86.29
2023-05-15T07:08:03.221Z,86.29
2023-05-15T07:09:03.277Z,86.59
2023-05-15T07:10:03.213Z,86.49
2023-05-15T07:11:03.219Z,86.39
2023-05-15T07:12:03.168Z,86.19
2023-05-15T07:13:04.113Z,85.94
2023-05-15T07:14:03.115Z,85.64
2023-05-15T07:15:03.144Z,85.33
2023-05-15T07:16:03.100Z,85.03
2023-05-15T07:17:03.153Z,84.92
2023-05-15T07:18:03.679Z,85.03
2023-05-15T07:19:03.211Z,85.13
2023-05-15T07:20:04.049Z,85.13
2023-05-15T07:21:04.003Z,85.23
2023-05-15T07:22:03.651Z,85.43
2023-05-15T07:23:03.020Z,85.53
2023-05-15T07:24:03.005Z,85.64
2023-05-15T07:25:03.836Z,85.64
2023-05-15T07:26:03.587Z,85.53
2023-05-15T07:27:02.967Z,85.33
2023-05-15T07:28:03.057Z,85.23
2023-05-15T07:29:02.994Z,85.33
2023-05-15T07:30:02.944Z,85.06
2023-05-15T07:31:03.275Z,85.06
2023-05-15T07:32:03.943Z,84.97
2023-05-15T07:33:03.788Z,84.76
2023-05-15T07:34:02.903Z,85.06
2023-05-15T07:35:02.871Z,85.17
2023-05-15T07:36:03.851Z,85.27
2023-05-15T07:37:02.957Z,84.97
2023-05-15T07:38:03.937Z,84.76
2023-05-15T07:39:03.886Z,84.66
2023-05-15T07:40:03.832Z,84.76
2023-05-15T07:41:03.080Z,84.76
2023-05-15T07:42:02.828Z,84.86
2023-05-15T07:43:02.795Z,84.42
2023-05-15T07:44:02.787Z,83.91
2023-05-15T07:45:02.953Z,83.91
2023-05-15T07:46:02.907Z,83.91
2023-05-15T07:47:02.772Z,83.91
2023-05-15T07:48:02.771Z,83.87
2023-05-15T07:49:02.775Z,83.76
2023-05-15T07:50:02.742Z,83.67
2023-05-15T07:51:03.106Z,83.87
2023-05-15T07:52:02.722Z,83.22
2023-05-15T07:53:03.596Z,83.12
2023-05-15T07:54:03.625Z,83.22
2023-05-15T07:55:03.437Z,83.22
2023-05-15T07:56:03.616Z,83.12
2023-05-15T07:57:03.434Z,82.92
2023-05-15T07:58:03.437Z,82.51
2023-05-15T07:59:02.783Z,82.20
2023-05-15T08:00:02.614Z,82.31
2023-05-15T08:01:03.439Z,82.40
2023-05-15T08:02:02.614Z,82.40
2023-05-15T08:03:03.417Z,82.51
2023-05-15T08:04:02.616Z,82.92
2023-05-15T08:05:02.548Z,83.12
2023-05-15T08:06:02.654Z,83.22
2023-05-15T08:07:03.362Z,83.12
2023-05-15T08:08:02.667Z,82.98
2023-05-15T08:09:02.504Z,82.57
2023-05-15T08:10:02.537Z,82.26
2023-05-15T08:11:02.706Z,82.37
2023-05-15T08:12:02.519Z,82.57
2023-05-15T08:13:02.460Z,82.67
2023-05-15T08:14:02.498Z,82.43
2023-05-15T08:15:02.419Z,82.33
2023-05-15T08:16:02.487Z,81.92
2023-05-15T08:17:02.399Z,81.72
2023-05-15T08:18:02.463Z,81.18
2023-05-15T08:19:02.500Z,81.07
2023-05-15T08:20:02.365Z,81.07
2023-05-15T08:21:03.503Z,80.83
2023-05-15T08:22:02.349Z,80.63
2023-05-15T08:23:02.441Z,80.43
2023-05-15T08:24:02.383Z,79.98
2023-05-15T08:25:03.614Z,79.68
2023-05-15T08:26:02.310Z,79.38
2023-05-15T08:27:02.281Z,79.27
2023-05-15T08:28:02.285Z,79.47
2023-05-15T08:29:02.279Z,79.27
2023-05-15T08:30:02.603Z,79.17
2023-05-15T08:31:02.249Z,78.16
2023-05-15T08:32:03.214Z,78.06
2023-05-15T08:33:02.269Z,78.40
2023-05-15T08:34:03.045Z,78.40
2023-05-15T08:35:02.226Z,78.40
2023-05-15T08:36:02.290Z,78.66
2023-05-15T08:37:03.616Z,78.97
2023-05-15T08:38:02.179Z,78.56
2023-05-15T08:39:02.149Z,78.46
2023-05-15T08:40:02.201Z,78.66
2023-05-15T08:41:02.130Z,78.87
2023-05-15T08:42:02.188Z,78.83
2023-05-15T08:43:02.109Z,78.42
2023-05-15T08:44:02.127Z,78.33
2023-05-15T08:45:02.158Z,77.82
2023-05-15T08:46:02.125Z,77.45
2023-05-15T08:47:02.135Z,77.75
2023-05-15T08:48:02.174Z,78.26
2023-05-15T08:49:02.180Z,78.66
2023-05-15T08:50:02.025Z,78.93
2023-05-15T08:51:02.034Z,79.03
2023-05-15T08:52:02.057Z,78.63
2023-05-15T08:53:03.491Z,78.33
2023-05-15T08:54:02.961Z,77.98
2023-05-15T08:55:02.795Z,77.98
2023-05-15T08:56:03.433Z,77.68
2023-05-15T08:57:01.961Z,77.41
2023-05-15T08:58:01.942Z,77.01
2023-05-15T08:59:01.933Z,76.50
2023-05-15T09:00:03.386Z,75.99
2023-05-15T09:01:01.950Z,76.20
2023-05-15T09:02:02.040Z,76.09
2023-05-15T09:03:02.034Z,75.99
2023-05-15T09:04:01.936Z,75.59
2023-05-15T09:05:02.368Z,75.18
2023-05-15T09:06:01.860Z,75.28
2023-05-15T09:07:02.185Z,75.08
2023-05-15T09:08:03.296Z,74.57
2023-05-15T09:09:01.809Z,74.44
2023-05-15T09:10:01.799Z,74.44
2023-05-15T09:11:01.798Z,74.24
2023-05-15T09:12:01.800Z,74.33
2023-05-15T09:13:02.562Z,74.24
2023-05-15T09:14:03.640Z,74.33
2023-05-15T09:15:01.751Z,74.33
2023-05-15T09:16:01.796Z,74.33
2023-05-15T09:17:01.848Z,74.33
2023-05-15T09:18:01.772Z,72.58
2023-05-15T09:19:01.767Z,72.28
2023-05-15T09:20:01.781Z,72.48
2023-05-15T09:21:01.684Z,71.37
2023-05-15T09:22:01.700Z,71.37
2023-05-15T09:23:01.660Z,71.47
2023-05-15T09:24:03.121Z,71.77
2023-05-15T09:25:01.621Z,71.37
2023-05-15T09:26:01.630Z,70.76
2023-05-15T09:27:01.641Z,71.06
2023-05-15T09:28:01.702Z,71.06
2023-05-15T09:29:03.060Z,71.47
2023-05-15T09:30:01.650Z,71.37
2023-05-15T09:31:01.568Z,71.26
2023-05-15T09:32:01.678Z,71.47
2023-05-15T09:33:01.613Z,70.96
2023-05-15T09:34:02.999Z,70.83
2023-05-15T09:35:02.989Z,70.93
2023-05-15T09:36:01.545Z,70.73
2023-05-15T09:37:01.717Z,70.52
2023-05-15T09:38:01.486Z,70.73
2023-05-15T09:39:01.481Z,70.73
2023-05-15T09:40:01.500Z,70.59
2023-05-15T09:41:02.944Z,69.98
2023-05-15T09:42:01.436Z,69.98
2023-05-15T09:43:01.440Z,70.09
2023-05-15T09:44:02.893Z,70.49
2023-05-15T09:45:01.489Z,69.24
2023-05-15T09:46:01.561Z,68.23
2023-05-15T09:47:01.494Z,68.13
2023-05-15T09:48:02.596Z,68.13
2023-05-15T09:49:02.382Z,68.33
2023-05-15T09:50:01.390Z,68.80
2023-05-15T09:51:01.365Z,68.60
2023-05-15T09:52:01.341Z,68.77
2023-05-15T09:53:01.766Z,67.06
2023-05-15T09:54:02.776Z,67.76
2023-05-15T09:55:01.292Z,67.16
2023-05-15T09:56:01.306Z,67.13
2023-05-15T09:57:01.285Z,67.43
2023-05-15T09:58:01.258Z,67.63
2023-05-15T09:59:01.263Z,67.02
2023-05-15T10:00:01.259Z,67.13
2023-05-15T10:01:03.283Z,67.02
2023-05-15T10:02:01.238Z,66.72
2023-05-15T10:03:01.299Z,65.41
2023-05-15T10:04:01.205Z,65.51
2023-05-15T10:05:02.690Z,65.41
2023-05-15T10:06:02.169Z,65.81
2023-05-15T10:07:01.162Z,65.31
2023-05-15T10:08:01.337Z,65.81
2023-05-15T10:09:02.602Z,66.89
2023-05-15T10:10:01.182Z,66.79
2023-05-15T10:11:01.185Z,66.59
2023-05-15T10:12:01.132Z,66.36
2023-05-15T10:13:01.127Z,65.45
2023-05-15T10:14:01.084Z,65.25
2023-05-15T10:15:02.572Z,64.54
2023-05-15T10:16:01.761Z,64.34
2023-05-15T10:17:01.373Z,64.54
2023-05-15T10:18:01.063Z,64.61
2023-05-15T10:19:02.865Z,65.12
2023-05-15T10:20:02.577Z,64.72
2023-05-15T10:21:01.012Z,63.87
2023-05-15T10:22:01.016Z,63.27
2023-05-15T10:23:01.017Z,62.66
2023-05-15T10:24:01.019Z,61.86
2023-05-15T10:25:00.967Z,61.66
2023-05-15T10:26:00.998Z,62.06
2023-05-15T10:27:02.416Z,60.45
2023-05-15T10:28:00.999Z,60.35
2023-05-15T10:29:00.941Z,59.64
2023-05-15T10:30:00.930Z,59.64
2023-05-15T10:31:02.426Z,60.05
2023-05-15T10:32:00.898Z,60.45
2023-05-15T10:33:01.015Z,59.64
2023-05-15T10:34:00.935Z,59.84
2023-05-15T10:35:00.890Z,60.15
2023-05-15T10:36:01.022Z,60.42
2023-05-15T10:37:00.859Z,61.43
2023-05-15T10:38:00.816Z,61.83
2023-05-15T10:39:00.816Z,62.01
2023-05-15T10:40:00.827Z,61.20
2023-05-15T10:41:15.841Z,61.50
2023-05-15T10:42:02.753Z,61.57
2023-05-15T10:43:02.243Z,61.47
2023-05-15T10:44:00.749Z,60.74
2023-05-15T10:45:00.756Z,59.53
2023-05-15T10:46:01.139Z,59.33
2023-05-15T10:47:00.836Z,59.53
2023-05-15T10:48:00.756Z,60.13
2023-05-15T10:49:00.798Z,59.83
2023-05-15T10:50:01.562Z,59.23
2023-05-15T10:51:00.676Z,59.23
2023-05-15T10:52:00.679Z,57.02
2023-05-15T10:53:02.240Z,57.22
2023-05-15T10:54:00.657Z,58.12
2023-05-15T10:55:00.677Z,58.02
2023-05-15T10:56:01.707Z,57.12
2023-05-15T10:57:00.630Z,55.21
2023-05-15T10:58:00.623Z,55.21
2023-05-15T10:59:02.035Z,54.91
2023-05-15T11:00:00.582Z,56.31
2023-05-15T11:01:00.643Z,56.82
2023-05-15T11:02:00.584Z,57.12
2023-05-15T11:03:00.691Z,57.02
2023-05-15T11:04:02.092Z,56.29
2023-05-15T11:05:02.034Z,56.59
2023-05-15T11:06:00.549Z,56.29
2023-05-15T11:07:01.986Z,56.89
2023-05-15T11:08:00.525Z,57.39
2023-05-15T11:09:02.440Z,58.70
2023-05-15T11:10:00.813Z,58.50
2023-05-15T11:11:00.481Z,56.69
2023-05-15T11:12:00.440Z,56.89
2023-05-15T11:13:01.940Z,56.79
2023-05-15T11:14:01.275Z,55.99
2023-05-15T11:15:01.869Z,55.18
2023-05-15T11:16:01.340Z,54.80
2023-05-15T11:17:00.779Z,54.80
2023-05-15T11:18:00.426Z,55.61
2023-05-15T11:19:01.430Z,55.61
2023-05-15T11:20:00.608Z,56.71
2023-05-15T11:21:00.337Z,55.61
2023-05-15T11:22:01.307Z,56.19
2023-05-15T11:23:01.769Z,56.29
2023-05-15T11:24:01.747Z,56.26
2023-05-15T11:25:00.305Z,55.86
2023-05-15T11:26:01.745Z,55.05
2023-05-15T11:27:00.287Z,53.45
2023-05-15T11:28:00.707Z,54.05
2023-05-15T11:29:00.265Z,55.05
2023-05-15T11:30:00.492Z,55.16
2023-05-15T11:31:00.296Z,54.85
2023-05-15T11:32:01.156Z,55.23
2023-05-15T11:33:01.730Z,55.83
2023-05-15T11:34:01.131Z,55.51
2023-05-15T11:35:00.288Z,53.59
2023-05-15T11:36:00.322Z,53.50
2023-05-15T11:37:00.269Z,53.90
2023-05-15T11:38:00.154Z,53.70
2023-05-15T11:39:00.941Z,52.19
2023-05-15T11:40:00.175Z,53.39
2023-05-15T11:41:00.949Z,53.50
2023-05-15T11:42:01.050Z,54.00
2023-05-15T11:43:01.549Z,54.10
2023-05-15T11:44:00.869Z,53.90
2023-05-15T11:45:01.530Z,51.99
2023-05-15T11:46:00.150Z,52.69
2023-05-15T11:47:00.931Z,53.90
2023-05-15T11:48:00.047Z,53.42
2023-05-15T11:49:00.866Z,53.62
2023-05-15T11:50:00.015Z,53.52
2023-05-15T11:51:01.544Z,54.33
2023-05-15T11:51:59.986Z,54.83
2023-05-15T11:53:00.160Z,55.23
2023-05-15T11:54:00.143Z,54.13
2023-05-15T11:55:00.024Z,54.70
2023-05-15T11:56:01.440Z,54.50
2023-05-15T11:56:59.949Z,54.30
2023-05-15T11:58:00.969Z,54.90
2023-05-15T11:59:00.267Z,54.47
2023-05-15T12:00:01.351Z,54.07
2023-05-15T12:01:00.722Z,53.37
2023-05-15T12:01:59.892Z,51.76
2023-05-15T12:03:00.047Z,50.89
2023-05-15T12:04:00.073Z,51.59
2023-05-15T12:05:00.829Z,51.39
2023-05-15T12:06:00.500Z,50.79
2023-05-15T12:07:02.890Z,52.09
2023-05-15T12:08:00.289Z,52.07
2023-05-15T12:08:59.802Z,51.37
2023-05-15T12:09:59.809Z,51.37
2023-05-15T12:11:01.251Z,50.56
2023-05-15T12:11:59.790Z,50.96
2023-05-15T12:12:59.745Z,50.74
2023-05-15T12:13:59.735Z,52.34
2023-05-15T12:14:59.758Z,51.34
2023-05-15T12:15:59.748Z,50.84
2023-05-15T12:16:59.758Z,51.62
2023-05-15T12:17:59.729Z,49.71
2023-05-15T12:18:59.742Z,50.11
2023-05-15T12:19:59.672Z,50.92
2023-05-15T12:21:01.173Z,49.99
2023-05-15T12:21:59.656Z,49.49
2023-05-15T12:23:01.171Z,49.19
2023-05-15T12:24:07.578Z,49.46
2023-05-15T12:25:00.609Z,48.76
2023-05-15T12:26:00.213Z,49.16
2023-05-15T12:26:59.582Z,49.44
2023-05-15T12:27:59.570Z,47.74
2023-05-15T12:28:59.598Z,47.02
2023-05-15T12:29:59.578Z,48.10
2023-05-15T12:30:59.654Z,48.27
2023-05-15T12:31:59.949Z,47.45
2023-05-15T12:32:59.621Z,46.13
2023-05-15T12:34:00.574Z,46.41
2023-05-15T12:34:59.563Z,46.98
2023-05-15T12:36:01.848Z,45.86
2023-05-15T12:36:59.540Z,45.22
2023-05-15T12:37:59.515Z,43.90
2023-05-15T12:38:59.490Z,43.80
2023-05-15T12:39:59.877Z,44.18
2023-05-15T12:40:59.481Z,44.16
2023-05-15T12:41:59.598Z,43.94
2023-05-15T12:42:59.440Z,43.13
2023-05-15T12:43:59.393Z,42.25
2023-05-15T12:44:59.404Z,42.97
2023-05-15T12:45:59.402Z,43.88
2023-05-15T12:46:59.436Z,43.79
2023-05-15T12:47:59.378Z,44.18
2023-05-15T12:48:59.351Z,43.90
2023-05-15T12:49:59.364Z,43.80
2023-05-15T12:51:00.801Z,43.51
2023-05-15T12:51:59.340Z,44.20